Flight Track Log - Related Links

Times and Time Zones

All times are in EDT time to prevent confusion due to time zone crossing. See the GJS3707 flight status page for this flight to view local times or setup timezone preferences in your user account.

Time Position Orientation Groundspeed Altitude Reporting Facility
EDT Latitude Longitude Course Direction KTS MPH feet Rate Location/Type
Wed 09:03:05 PM 46.8361 -92.3181 270° West 203 234 4,600  Level Minneapolis Center
Wed 09:04:07 PM 46.8372 -92.4264 271° West 238 274 7,100 2,710 Climbing Minneapolis Center
Wed 09:05:09 PM 46.8372 -92.5400 270° West 274 315 10,200 2,323 Climbing Minneapolis Center
Wed 09:06:11 PM 46.8367 -92.6658 270° West 296 341 11,900 2,323 Climbing Minneapolis Center
Wed 09:07:13 PM 46.8367 -92.8342 270° West 334 384 15,000 2,488 Climbing Minneapolis Center
Wed 09:08:00 PM 46.8334 -93.1387 270° West  Level FlightAware Approximate
Wed 09:08:14 PM 46.8353 -92.9783 269° West 345 397 17,000  Level Minneapolis Center
Wed 09:09:16 PM 46.8336 -93.1292 269° West 356 410 18,800 1,790 Climbing Minneapolis Center
Wed 09:10:18 PM 46.8331 -93.2864 270° West 369 425 20,700 1,839 Climbing Minneapolis Center
Wed 09:11:20 PM 46.8328 -93.4450 270° West 381 438 22,600 1,742 Climbing Minneapolis Center
Wed 09:12:22 PM 46.8311 -93.6050 269° West 390 449 24,300 1,561 Climbing Minneapolis Center
Wed 09:13:23 PM 46.8294 -93.7700 269° West 400 460 25,800 1,366 Climbing Minneapolis Center
Wed 09:14:25 PM 46.8272 -93.9381 269° West 409 471 27,100 1,306 Climbing Minneapolis Center
Wed 09:15:27 PM 46.8253 -94.1408 269° West 417 480 28,500 1,161 Climbing Minneapolis Center
Wed 09:16:29 PM 46.8222 -94.3125 269° West 421 484 29,500 1,016 Climbing Minneapolis Center
Wed 09:17:31 PM 46.8192 -94.4881 269° West 430 495 30,600 1,024 Climbing Minneapolis Center
Wed 09:18:32 PM 46.8161 -94.6622 269° West 431 496 31,600 683 Climbing Minneapolis Center
Wed 09:19:34 PM 46.8119 -94.8406 268° West 439 505 32,000 194 Climbing Minneapolis Center
Wed 09:20:36 PM 46.8083 -95.0236 268° West 449 517 32,000  Level Minneapolis Center
Wed 09:21:38 PM 46.8033 -95.2078 268° West 455 524 32,000 629 Level Minneapolis Center
Wed 09:22:40 PM 46.7992 -95.4264 268° West 451 519 33,300 1,171 Climbing Minneapolis Center
Wed 09:23:41 PM 46.7953 -95.6056 268° West 445 512 34,400 1,024 Climbing Minneapolis Center
Wed 09:24:43 PM 46.7892 -95.7778 267° West 434 499 35,400 1,065 Climbing Minneapolis Center
Wed 09:25:45 PM 46.7844 -95.9633 268° West 428 493 36,600 1,161 Climbing Minneapolis Center
Wed 09:26:47 PM 46.7786 -96.1294 267° West 417 480 37,800 823 Climbing Minneapolis Center
Wed 09:27:49 PM 46.7739 -96.2936 268° West 409 471 38,300 488 Climbing Minneapolis Center
Wed 09:28:50 PM 46.7683 -96.4594 267° West 409 471 38,800 488 Climbing Minneapolis Center
Wed 09:29:52 PM 46.7617 -96.6264 267° West 411 473 39,300 484 Climbing Minneapolis Center
Wed 09:30:54 PM 46.7561 -96.7917 267° West 410 472 39,800 341 Climbing Minneapolis Center
Wed 09:31:55 PM 46.7575 -96.9592 271° West 412 474 40,000 98 Climbing Minneapolis Center
Wed 09:32:57 PM 46.7672 -97.1606 274° West 416 479 40,000  Level Minneapolis Center
Wed 09:33:59 PM 46.7739 -97.3272 273° West 413 475 40,000  Level Minneapolis Center
Wed 09:35:00 PM 46.7808 -97.4908 274° West 405 466 40,000  Level Minneapolis Center
Wed 09:36:02 PM 46.7864 -97.6589 273° West 411 473 40,000  Level Minneapolis Center
Wed 09:37:04 PM 46.7925 -97.8264 273° West 413 475 40,000  Level Minneapolis Center
Wed 09:38:05 PM 46.7978 -97.9956 273° West 415 478 40,000  Level Minneapolis Center
Wed 09:39:07 PM 46.8036 -98.1653 273° West 418 481 40,000  Level Minneapolis Center
Wed 09:40:09 PM 46.8097 -98.3372 273° West 421 484 40,000  Level Minneapolis Center
Wed 09:41:10 PM 46.8156 -98.5408 272° West 420 483 40,000  Level Minneapolis Center
Wed 09:42:12 PM 46.8208 -98.7103 273° West 419 482 40,000 -48 Level Minneapolis Center
Wed 09:43:14 PM 46.8256 -98.8786 272° West 417 480 39,900  Descending Minneapolis Center
Wed 09:44:15 PM 46.8286 -99.0444 272° West 412 474 40,000 49 Climbing Minneapolis Center
Wed 09:45:17 PM 46.8328 -99.2131 272° West 415 478 40,000  Level Minneapolis Center
Wed 09:46:18 PM 46.8378 -99.3822 273° West 416 479 40,000  Level Minneapolis Center
Wed 09:47:20 PM 46.8403 -99.5494 271° West 415 478 40,000  Level Minneapolis Center
Wed 09:48:21 PM 46.8442 -99.7142 272° West 409 471 40,000  Level Minneapolis Center
Wed 09:49:23 PM 46.8467 -99.8778 271° West 406 467 40,000  Level Minneapolis Center
Wed 09:50:24 PM 46.8503 -100.0756 272° West 406 467 40,000  Level Minneapolis Center
Wed 09:51:26 PM 46.8531 -100.2381 271° West 404 465 40,000  Level Minneapolis Center
Wed 09:52:27 PM 46.8550 -100.4011 271° West 402 463 40,000  Level Minneapolis Center
Wed 09:53:29 PM 46.8569 -100.5731 271° West 401 461 40,000  Level Minneapolis Center
Wed 09:54:30 PM 46.8575 -100.7347 270° West 400 460 40,000  Level Minneapolis Center
Wed 09:55:31 PM 46.8592 -100.8975 271° West 401 461 40,000  Level Minneapolis Center
Wed 09:56:33 PM 46.8600 -101.0625 270° West 403 464 40,000  Level Minneapolis Center
Wed 09:57:34 PM 46.8606 -101.2275 270° West 406 467 40,000  Level Minneapolis Center
Wed 09:58:36 PM 46.8608 -101.3908 270° West 406 467 40,000  Level Minneapolis Center
Wed 09:59:37 PM 46.8614 -101.5536 270° West 404 465 40,000  Level Minneapolis Center
Wed 10:00:38 PM 46.8625 -101.7200 271° West 404 465 40,000  Level Minneapolis Center
Wed 10:01:39 PM 46.8644 -101.9161 271° West 403 464 40,000  Level Minneapolis Center
Wed 10:02:41 PM 46.8631 -102.0792 269° West 403 464 40,000  Level Minneapolis Center
Wed 10:03:42 PM 46.8633 -102.2422 270° West 401 461 40,000  Level Minneapolis Center
Wed 10:04:43 PM 46.8639 -102.4044 270° West 401 461 40,000  Level Minneapolis Center
Wed 10:05:44 PM 46.8639 -102.5678 270° West 402 463 40,000  Level Minneapolis Center
Wed 10:06:46 PM 46.8631 -102.7314 270° West 403 464 40,000  Level Minneapolis Center
Wed 10:07:47 PM 46.8456 -102.8942 261° West 403 464 40,000 -52 Level Minneapolis Center
Wed 10:08:41 PM 46.8200 -103.0575 257° West 404 465 39,900  Descending Salt Lake Center
Wed 10:09:43 PM 46.7975 -103.2183 259° West 406 467 40,000  Climbing Salt Lake Center
Wed 10:10:44 PM 46.7750 -103.3778 258° West 405 466 39,900  Descending Salt Lake Center
Wed 10:11:46 PM 46.7519 -103.5408 258° West 406 467 40,000 49 Climbing Salt Lake Center
Wed 10:12:47 PM 46.7289 -103.7008 258° West 406 467 40,000  Level Salt Lake Center
Wed 10:13:49 PM 46.7056 -103.8644 258° West 408 470 40,000  Level Salt Lake Center
Wed 10:14:50 PM 46.6808 -104.0228 257° West 406 467 40,000  Level Salt Lake Center
Wed 10:15:52 PM 46.6575 -104.1836 258° West 405 466 40,000  Level Salt Lake Center
Wed 10:16:53 PM 46.6328 -104.3439 257° West 407 468 40,000  Level Salt Lake Center
Wed 10:17:55 PM 46.6031 -104.5367 257° West 407 468 40,000  Level Salt Lake Center
Wed 10:18:56 PM 46.5761 -104.6969 256° West 408 470 40,000  Level Salt Lake Center
Wed 10:19:57 PM 46.5472 -104.8583 255° West 407 468 40,000  Level Salt Lake Center
Wed 10:20:59 PM 46.5178 -105.0092 254° West 407 468 40,000  Level Salt Lake Center
Wed 10:22:00 PM 46.4869 -105.1875 256° West 407 468 40,000  Level Salt Lake Center
Wed 10:23:02 PM 46.4592 -105.3400 255° West 408 470 40,000  Level Salt Lake Center
Wed 10:24:03 PM 46.4322 -105.4917 256° West 408 470 40,000  Level Salt Lake Center
Wed 10:25:05 PM 46.4000 -105.6692 255° West 408 470 40,000  Level Salt Lake Center
Wed 10:26:06 PM 46.3725 -105.8206 255° West 407 468 40,000  Level Salt Lake Center
Wed 10:27:08 PM 46.3400 -105.9961 255° West 407 468 40,000  Level Salt Lake Center
Wed 10:28:09 PM 46.3122 -106.1456 255° West 405 466 40,000  Level Salt Lake Center
Wed 10:29:11 PM 46.2789 -106.3206 255° West 404 465 40,000  Level Salt Lake Center
Wed 10:30:12 PM 46.2517 -106.4703 255° West 404 465 40,000  Level Salt Lake Center
Wed 10:31:14 PM 46.2233 -106.6172 254° West 401 461 40,000  Level Salt Lake Center
Wed 10:32:15 PM 46.1889 -106.7908 254° West 402 463 40,000  Level Salt Lake Center
Wed 10:33:17 PM 46.1586 -106.9389 254° West 402 463 40,000  Level Salt Lake Center
Wed 10:34:18 PM 46.1250 -107.1097 254° West 399 459 40,000  Level Salt Lake Center
Wed 10:35:20 PM 46.0939 -107.2603 253° West 404 465 40,000  Level Salt Lake Center
Wed 10:36:21 PM 46.0636 -107.4081 254° West 404 465 40,000  Level Salt Lake Center
Wed 10:37:23 PM 46.0283 -107.5817 254° West 404 465 40,000  Level Salt Lake Center
Wed 10:38:24 PM 45.9975 -107.7306 253° West 405 466 40,000  Level Salt Lake Center
Wed 10:39:26 PM 45.9617 -107.9042 254° West 406 467 40,000  Level Salt Lake Center
Wed 10:40:27 PM 45.9303 -108.0528 253° West 407 468 40,000  Level Salt Lake Center
Wed 10:41:28 PM 45.8933 -108.2275 253° West 411 473 40,000  Level Salt Lake Center
Wed 10:42:30 PM 45.8617 -108.3753 253° West 408 470 40,000  Level Salt Lake Center
Wed 10:43:31 PM 45.8292 -108.5331 254° West 437 503 40,000  Level Salt Lake Center
Wed 10:44:33 PM 45.7750 -108.7014 245° Southwest 437 503 40,000  Level Salt Lake Center
Wed 10:45:34 PM 45.7156 -108.8297 236° Southwest 406 467 40,000  Level Salt Lake Center
Wed 10:46:36 PM 45.6467 -108.9822 237° Southwest 408 470 40,000  Level Salt Lake Center
Wed 10:47:37 PM 45.5881 -109.1108 237° Southwest 406 467 40,000  Level Salt Lake Center
Wed 10:48:39 PM 45.5197 -109.2581 237° Southwest 399 459 40,000  Level Salt Lake Center
Wed 10:49:40 PM 45.4622 -109.3839 237° Southwest 396 456 40,000  Level Salt Lake Center
Wed 10:50:42 PM 45.4058 -109.5078 237° Southwest 392 451 40,000  Level Salt Lake Center
Wed 10:51:43 PM 45.3389 -109.6514 236° Southwest 389 448 40,000  Level Salt Lake Center
Wed 10:52:45 PM 45.2819 -109.7742 237° Southwest 389 448 40,000  Level Salt Lake Center
Wed 10:53:46 PM 45.2142 -109.9169 236° Southwest 391 450 40,000  Level Salt Lake Center
Wed 10:54:47 PM 45.1550 -110.0389 236° Southwest 391 450 40,000  Level Salt Lake Center
Wed 10:55:49 PM 45.0869 -110.1806 236° Southwest 391 450 40,000  Level Salt Lake Center
Wed 10:56:50 PM 45.0275 -110.3028 235° Southwest 394 453 40,000  Level Salt Lake Center
Wed 10:57:52 PM 44.9697 -110.4256 236° Southwest 393 452 40,000  Level Salt Lake Center
Wed 10:58:53 PM 44.9011 -110.5681 236° Southwest 394 453 40,000  Level Salt Lake Center
Wed 10:59:54 PM 44.8422 -110.6906 236° Southwest 393 452 40,000  Level Salt Lake Center
Wed 11:00:56 PM 44.7831 -110.8119 236° Southwest 393 452 40,000  Level Salt Lake Center
Wed 11:01:57 PM 44.7147 -110.9531 236° Southwest 391 450 40,000  Level Salt Lake Center
Wed 11:02:59 PM 44.6567 -111.0717 235° Southwest 388 447 40,000  Level Salt Lake Center
Wed 11:04:00 PM 44.5892 -111.2094 236° Southwest 384 442 40,000  Level Salt Lake Center
Wed 11:05:02 PM 44.5297 -111.3286 235° Southwest 384 442 40,000  Level Salt Lake Center
Wed 11:06:03 PM 44.4683 -111.4511 235° Southwest 386 444 40,000  Level Salt Lake Center
Wed 11:07:05 PM 44.3997 -111.5908 236° Southwest 386 444 40,000  Level Salt Lake Center
Wed 11:08:06 PM 44.3406 -111.7086 235° Southwest 386 444 40,000  Level Salt Lake Center
Wed 11:09:08 PM 44.2825 -111.8256 235° Southwest 383 441 40,000  Level Salt Lake Center
Wed 11:10:09 PM 44.2133 -111.9628 235° Southwest 385 443 40,000  Level Salt Lake Center
Wed 11:11:10 PM 44.1544 -112.0789 235° Southwest 384 442 40,000  Level Salt Lake Center
Wed 11:12:12 PM 44.0961 -112.1969 235° Southwest 385 443 40,000  Level Salt Lake Center
Wed 11:13:13 PM 44.0697 -112.3647 258° West 398 458 40,000  Level Salt Lake Center
Wed 11:14:15 PM 44.0536 -112.5103 261° West 400 460 40,000  Level Salt Lake Center
Wed 11:15:16 PM 44.0344 -112.6789 261° West 396 456 40,000  Level Salt Lake Center
Wed 11:16:17 PM 44.0164 -112.8214 260° West 391 450 40,000  Level Salt Lake Center
Wed 11:17:18 PM 43.9989 -112.9658 260° West 395 455 40,000  Level Salt Lake Center
Wed 11:18:20 PM 43.9800 -113.1311 261° West 389 448 40,000  Level Salt Lake Center
Wed 11:19:21 PM 43.9636 -113.2744 261° West 392 451 40,000  Level Salt Lake Center
Wed 11:20:22 PM 43.9422 -113.4411 260° West 393 452 40,000  Level Salt Lake Center
Wed 11:21:24 PM 43.9258 -113.5875 261° West 402 463 40,000  Level Salt Lake Center
Wed 11:22:25 PM 43.9067 -113.7314 260° West 399 459 40,000 -98 Level Salt Lake Center
Wed 11:23:26 PM 43.8842 -113.8992 260° West 397 457 39,800 -1,328 Descending Salt Lake Center
Wed 11:24:27 PM 43.8653 -114.0550 261° West 390 449 37,300 -2,361 Descending Salt Lake Center
Wed 11:25:28 PM 43.8475 -114.1947 260° West 385 443 35,000 -2,311 Descending Salt Lake Center
Wed 11:26:29 PM 43.8303 -114.3272 260° West 363 418 32,600 -2,439 Descending Salt Lake Center
Wed 11:27:31 PM 43.8083 -114.4831 259° West 377 434 30,000 -2,439 Descending Salt Lake Center
Wed 11:28:32 PM 43.7886 -114.6278 259° West 398 458 27,600 -2,361 Descending Salt Lake Center
Wed 11:29:33 PM 43.7703 -114.7681 260° West 389 448 25,200 -2,607 Descending Salt Lake Center
Wed 11:30:34 PM 43.7503 -114.9208 260° West 366 421 22,300 -2,557 Descending Salt Lake Center
Wed 11:31:35 PM 43.7306 -115.0531 258° West 365 420 20,000 -2,262 Descending Salt Lake Center
Wed 11:32:36 PM 43.7117 -115.1972 260° West 345 397 17,700 -2,066 Descending Salt Lake Center
Wed 11:33:37 PM 43.6953 -115.3136 259° West 329 379 15,800 -2,066 Descending Salt Lake Center
Wed 11:34:38 PM 43.6772 -115.4414 259° West 324 373 13,500 -1,805 Descending Salt Lake Center
Wed 11:35:40 PM 43.6450 -115.5506 248° West 321 369 12,100 -1,366 Descending Salt Lake Center
Wed 11:36:41 PM 43.6039 -115.6592 242° Southwest 310 357 10,700 -1,426 Descending Salt Lake Center
Wed 11:37:42 PM 43.5622 -115.7594 240° Southwest 291 335 9,200 -1,328 Descending Salt Lake Center
Wed 11:38:43 PM 43.5253 -115.8444 239° Southwest 271 312 8,000 -1,525 Descending Salt Lake Center
Wed 11:39:44 PM 43.4758 -115.9267 230° Southwest 268 308 6,100 -984 Descending Salt Lake Center
Wed 11:40:45 PM 43.4861 -116.0042 280° West 205 236 6,000 -443 Descending Salt Lake Center
Wed 11:41:46 PM 43.5056 -116.0508 300° West 145 167 5,200 -787 Descending Salt Lake Center
Wed 11:42:47 PM 43.5211 -116.0983 294° West 131 151 4,400 -738 Descending Salt Lake Center
Wed 11:43:48 PM 43.5381 -116.1464 296° West 132 152 3,700 -492 Descending Salt Lake Center
Wed 11:44:49 PM 43.5503 -116.1842 294° West 131 151 3,400 -295 Descending Salt Lake Center
Wed 11:46:00 PM 43.5500 -116.2167 251° West  Level FlightAware Approximate
Wed 11:53:00 PM 43.5644 -116.2229 251° West  Level Estimated
Wed 11:54:00 PM 43.5644 -116.2229 251° West  Level Estimated

Login

Don't have an account? Register now (free) for customized features, flight alerts, and more!